Time;durP1;ratioP1;P1;durP2;ratioP2;P2;SDS_P1;SDS_P2;PMS_P1;PMS_P2;Temp;Humidity;BMP_temperature;BMP_pressure;BME280_temperature;BME280_humidity;BME280_pressure;Samples;Min_cycle;Max_cycle;Signal;HPM_P1;HPM_P2
2023/03/27 00:01:24;;;;;;;10.10;5.18;;;9.50;60.80;;;;;;4721378;29;114854;-83
2023/03/27 00:03:52;;;;;;;11.15;5.82;;;9.60;60.50;;;;;;4723644;29;114881;-82
2023/03/27 00:06:20;;;;;;;10.93;6.43;;;9.60;60.60;;;;;;4723019;29;115274;-83
2023/03/27 00:08:49;;;;;;;10.77;6.97;;;9.50;60.40;;;;;;4729933;29;116638;-83
2023/03/27 00:11:18;;;;;;;11.80;6.78;;;9.40;60.60;;;;;;4741551;29;114807;-84
2023/03/27 00:13:48;;;;;;;14.00;7.88;;;9.40;60.80;;;;;;4741966;29;114499;-84
2023/03/27 00:16:20;;;;;;;13.13;7.55;;;9.40;61.10;;;;;;4724665;29;118218;-83
2023/03/27 00:18:48;;;;;;;13.68;8.35;;;9.30;61.30;;;;;;4737066;29;116058;-83
2023/03/27 00:21:15;;;;;;;12.52;8.80;;;9.30;61.50;;;;;;4733189;29;114531;-83
2023/03/27 00:23:42;;;;;;;16.75;10.25;;;9.20;61.70;;;;;;4725775;29;116729;-83
2023/03/27 00:26:14;;;;;;;17.85;11.40;;;9.20;61.80;;;;;;4740797;29;115292;-84
2023/03/27 00:28:41;;;;;;;17.77;10.77;;;9.20;62.10;;;;;;4739128;29;114970;-83
2023/03/27 00:31:10;;;;;;;15.48;10.00;;;9.20;62.40;;;;;;4740635;29;114650;-84
2023/03/27 00:33:38;;;;;;;14.82;9.93;;;9.20;62.60;;;;;;4726016;29;114455;-83
2023/03/27 00:36:06;;;;;;;17.63;10.65;;;9.20;62.70;;;;;;4734675;29;115220;-83
2023/03/27 00:38:33;;;;;;;17.75;10.80;;;9.20;62.60;;;;;;4707814;29;114802;-84
2023/03/27 00:41:01;;;;;;;15.73;10.27;;;9.20;62.60;;;;;;4724352;29;114689;-84
2023/03/27 00:43:32;;;;;;;16.50;10.00;;;9.40;62.60;;;;;;4738759;29;115796;-83
2023/03/27 00:46:38;;;;;;;15.65;10.05;;;9.40;62.50;;;;;;4707130;29;115479;-83
2023/03/27 00:49:07;;;;;;;;;;;9.50;62.40;;;;;;4722564;29;114790;-82
2023/03/27 00:51:35;;;;;;;18.02;10.73;;;9.40;61.30;;;;;;4723649;29;115097;-83
2023/03/27 00:54:03;;;;;;;16.48;10.20;;;9.40;62.50;;;;;;4709822;29;114650;-83
2023/03/27 00:56:32;;;;;;;15.20;9.60;;;9.40;62.60;;;;;;4740643;29;115261;-84
2023/03/27 00:59:02;;;;;;;16.52;10.60;;;9.50;62.80;;;;;;4726169;29;114867;-83
2023/03/27 01:01:30;;;;;;;15.60;11.65;;;9.50;62.90;;;;;;4711651;29;114554;-83
2023/03/27 01:04:01;;;;;;;18.60;11.30;;;9.50;62.90;;;;;;4726627;29;114423;-83
2023/03/27 01:06:29;;;;;;;18.90;11.95;;;9.60;63.00;;;;;;4710302;29;117525;-83
2023/03/27 01:08:57;;;;;;;15.43;10.90;;;9.50;62.90;;;;;;4710427;29;115155;-83
2023/03/27 01:12:03;;;;;;;18.63;11.13;;;9.50;63.00;;;;;;4741691;29;114478;-83
2023/03/27 01:15:12;;;;;;;20.58;12.73;;;9.60;62.90;;;;;;4740777;29;114729;-84
2023/03/27 01:17:58;;;;;;;19.35;11.82;;;9.50;63.50;;;;;;4739900;29;115374;-83
2023/03/27 01:20:54;;;;;;;21.40;13.52;;;9.40;63.70;;;;;;4726008;29;114784;-83
2023/03/27 01:23:52;;;;;;;22.73;13.75;;;9.40;63.80;;;;;;4742370;29;114525;-83
2023/03/27 01:27:36;;;;;;;18.38;13.45;;;9.40;64.10;;;;;;4741174;29;114483;-83
2023/03/27 01:30:23;;;;;;;21.90;14.23;;;9.30;64.20;;;;;;4724793;29;116592;-84
2023/03/27 01:33:35;;;;;;;22.45;14.18;;;9.30;64.50;;;;;;4682038;29;114999;-82
2023/03/27 01:36:17;;;;;;;21.27;13.73;;;9.30;64.30;;;;;;4690932;29;114437;-82
2023/03/27 01:39:07;;;;;;;24.70;16.05;;;9.30;64.60;;;;;;4726030;29;117587;-82
2023/03/27 01:41:41;;;;;;;24.17;15.05;;;9.30;64.40;;;;;;4728524;29;114647;-82
2023/03/27 01:44:08;;;;;;;25.35;17.05;;;9.20;64.70;;;;;;4694550;29;117382;-82
2023/03/27 01:46:52;;;;;;;25.20;16.77;;;9.20;64.60;;;;;;4737900;29;114619;-83
2023/03/27 01:49:31;;;;;;;25.02;17.20;;;9.20;65.10;;;;;;4701222;29;114612;-82
2023/03/27 01:52:03;;;;;;;26.08;17.40;;;9.20;65.20;;;;;;4728440;29;115298;-82
2023/03/27 01:54:34;;;;;;;28.05;17.58;;;9.20;65.30;;;;;;4729013;29;116939;-82
2023/03/27 01:57:27;;;;;;;26.30;18.60;;;9.20;65.10;;;;;;4729431;29;114543;-82
2023/03/27 02:00:26;;;;;;;28.08;19.05;;;9.30;65.20;;;;;;4730406;29;114485;-82
2023/03/27 02:03:37;;;;;;;26.92;18.35;;;9.30;65.10;;;;;;4713875;29;115358;-82
2023/03/27 02:06:13;;;;;;;28.98;19.17;;;9.30;65.00;;;;;;4722640;29;114682;-81
2023/03/27 02:09:04;;;;;;;29.25;19.15;;;9.30;65.20;;;;;;4722450;29;114602;-82
2023/03/27 02:11:56;;;;;;;30.65;19.90;;;9.30;65.00;;;;;;4697271;29;114658;-82
2023/03/27 02:14:27;;;;;;;30.70;19.90;;;9.30;65.00;;;;;;4737329;29;115431;-83
2023/03/27 02:16:58;;;;;;;29.30;19.55;;;9.30;65.10;;;;;;4724026;29;115127;-83
2023/03/27 02:19:33;;;;;;;24.52;17.00;;;9.30;65.20;;;;;;4710151;29;114962;-82
2023/03/27 02:22:01;;;;;;;24.85;16.27;;;9.30;65.30;;;;;;4724698;29;114610;-82
2023/03/27 02:24:42;;;;;;;24.13;17.33;;;9.20;65.30;;;;;;4725413;29;115399;-83
2023/03/27 02:27:23;;;;;;;25.77;16.67;;;9.20;65.40;;;;;;4726100;29;114827;-83
2023/03/27 02:30:15;;;;;;;29.52;17.90;;;9.30;65.70;;;;;;4738205;29;114862;-82
2023/03/27 02:33:03;;;;;;;25.40;18.00;;;9.20;65.60;;;;;;4680063;29;114750;-83
2023/03/27 02:35:59;;;;;;;27.58;16.50;;;9.20;65.40;;;;;;4719616;29;115318;-82
2023/03/27 02:38:51;;;;;;;27.25;16.42;;;9.20;65.60;;;;;;4723725;29;114923;-83
2023/03/27 02:41:29;;;;;;;27.85;16.48;;;9.20;65.70;;;;;;4707825;29;114700;-83
2023/03/27 02:44:42;;;;;;;26.17;17.15;;;9.20;65.70;;;;;;4722614;29;114488;-82
2023/03/27 02:47:44;;;;;;;25.35;18.08;;;9.20;65.60;;;;;;4704221;29;115927;-83
2023/03/27 02:50:22;;;;;;;28.65;17.65;;;9.20;65.50;;;;;;4705427;29;114933;-83
2023/03/27 02:52:57;;;;;;;28.17;17.77;;;9.10;66.10;;;;;;4721825;29;114874;-83
2023/03/27 02:55:37;;;;;;;24.65;16.63;;;9.10;66.10;;;;;;4710651;29;114562;-82
2023/03/27 02:58:13;;;;;;;25.65;17.60;;;9.10;66.20;;;;;;4691501;29;115215;-83
2023/03/27 03:00:57;;;;;;;26.50;16.98;;;9.00;66.10;;;;;;4692540;29;115381;-83
2023/03/27 03:03:42;;;;;;;29.77;19.05;;;9.00;66.20;;;;;;4692870;29;114720;-83
2023/03/27 03:06:45;;;;;;;25.73;17.73;;;9.00;66.30;;;;;;4711370;29;115040;-83
2023/03/27 03:09:13;;;;;;;27.98;17.95;;;9.00;66.40;;;;;;4702015;29;115341;-83
2023/03/27 03:11:50;;;;;;;25.88;17.98;;;9.00;66.50;;;;;;4686742;29;114879;-83
2023/03/27 03:14:22;;;;;;;27.45;17.20;;;9.10;66.80;;;;;;4702945;29;114937;-84
2023/03/27 03:16:49;;;;;;;24.65;16.52;;;9.00;66.60;;;;;;4702560;29;115329;-82
2023/03/27 03:19:16;;;;;;;27.45;20.52;;;9.10;66.60;;;;;;4702199;29;115592;-84
2023/03/27 03:21:48;;;;;;;29.55;19.08;;;9.10;66.60;;;;;;4702632;29;114708;-83
2023/03/27 03:24:16;;;;;;;28.08;17.90;;;9.00;66.60;;;;;;4704032;29;114538;-84
2023/03/27 03:26:44;;;;;;;28.58;19.85;;;9.00;66.70;;;;;;4720201;29;114606;-83
2023/03/27 03:29:13;;;;;;;28.80;20.10;;;9.00;66.90;;;;;;4703877;29;115505;-83
2023/03/27 03:31:48;;;;;;;28.75;20.88;;;9.00;66.70;;;;;;4675793;29;116292;-82
2023/03/27 03:34:21;;;;;;;32.40;21.05;;;9.00;66.90;;;;;;4675859;29;114726;-82
2023/03/27 03:36:49;;;;;;;32.13;21.77;;;9.10;66.90;;;;;;4708712;29;114634;-81
2023/03/27 03:39:22;;;;;;;35.38;22.83;;;9.00;66.90;;;;;;4737733;29;115475;-84
2023/03/27 03:41:50;;;;;;;28.13;20.30;;;9.00;66.80;;;;;;4722644;29;115243;-83
2023/03/27 03:44:17;;;;;;;28.58;19.35;;;9.00;66.90;;;;;;4724002;29;114764;-84
2023/03/27 03:46:45;;;;;;;31.95;20.63;;;9.00;67.00;;;;;;4723883;29;114598;-84
2023/03/27 03:49:16;;;;;;;33.58;21.58;;;8.90;67.00;;;;;;4708297;29;115146;-84
2023/03/27 03:51:43;;;;;;;31.20;22.13;;;8.90;67.10;;;;;;4737477;29;114705;-82
2023/03/27 03:54:10;;;;;;;35.28;24.40;;;8.90;67.20;;;;;;4724285;29;114810;-84
2023/03/27 03:56:42;;;;;;;35.83;25.67;;;8.90;67.30;;;;;;4709603;29;114724;-85
2023/03/27 03:59:10;;;;;;;36.33;24.90;;;8.80;67.30;;;;;;4726013;29;115311;-84
2023/03/27 04:01:57;;;;;;;37.95;25.83;;;8.80;67.50;;;;;;4713720;29;116046;-85
2023/03/27 04:04:29;;;;;;;39.70;27.75;;;8.70;67.60;;;;;;4712173;29;115068;-82
2023/03/27 04:07:16;;;;;;;38.40;27.05;;;8.70;67.70;;;;;;4723473;29;116934;-84
2023/03/27 04:09:46;;;;;;;38.30;25.48;;;8.70;67.60;;;;;;4708142;29;115770;-83
2023/03/27 04:12:22;;;;;;;43.42;28.42;;;8.70;67.60;;;;;;4713624;29;114973;-83
2023/03/27 04:14:56;;;;;;;40.88;27.33;;;8.70;67.60;;;;;;4705265;29;115028;-84
2023/03/27 04:17:48;;;;;;;43.50;27.33;;;8.70;67.60;;;;;;4723917;29;115366;-85
2023/03/27 04:20:16;;;;;;;42.50;27.58;;;8.70;67.60;;;;;;4710333;29;119178;-84
2023/03/27 04:22:45;;;;;;;37.55;27.08;;;8.70;67.50;;;;;;4740252;29;118778;-84
2023/03/27 04:25:16;;;;;;;34.33;26.15;;;8.70;67.40;;;;;;4701371;29;114590;-83
2023/03/27 04:27:44;;;;;;;38.75;25.05;;;8.70;67.40;;;;;;4708966;29;114596;-84
2023/03/27 04:30:21;;;;;;;37.63;25.30;;;8.70;67.30;;;;;;4708036;29;116809;-84
2023/03/27 04:33:06;;;;;;;39.85;26.92;;;8.70;67.30;;;;;;4710756;29;114634;-83
2023/03/27 04:35:41;;;;;;;32.38;24.45;;;8.70;67.20;;;;;;4738769;29;114924;-83
2023/03/27 04:38:18;;;;;;;36.20;25.85;;;8.70;67.40;;;;;;4739299;29;114624;-84
2023/03/27 04:40:49;;;;;;;36.45;25.05;;;8.60;67.60;;;;;;4693473;29;116257;-83
2023/03/27 04:43:17;;;;;;;35.65;24.80;;;8.60;67.60;;;;;;4737257;29;117554;-84
2023/03/27 04:45:46;;;;;;;36.95;25.75;;;8.60;67.60;;;;;;4721614;29;117597;-83
2023/03/27 04:48:14;;;;;;;36.35;24.48;;;8.50;67.70;;;;;;4722558;29;116179;-84
2023/03/27 04:50:48;;;;;;;35.25;23.73;;;8.50;67.80;;;;;;4704365;29;115392;-84
2023/03/27 04:53:29;;;;;;;37.67;27.02;;;8.40;68.00;;;;;;4718049;29;116270;-84
2023/03/27 04:55:56;;;;;;;36.35;23.48;;;8.40;68.30;;;;;;4722606;29;114581;-84
2023/03/27 04:58:24;;;;;;;38.22;26.75;;;8.30;68.40;;;;;;4707800;29;114668;-83
2023/03/27 05:00:54;;;;;;;40.50;27.58;;;8.40;68.50;;;;;;4707401;29;115296;-83
2023/03/27 05:03:53;;;;;;;39.03;26.10;;;8.40;68.50;;;;;;4721736;29;114809;-83
2023/03/27 05:06:31;;;;;;;39.70;25.95;;;8.30;68.40;;;;;;4724277;29;114515;-81
2023/03/27 05:09:00;;;;;;;42.47;25.40;;;8.30;68.40;;;;;;4746194;29;114484;-80
2023/03/27 05:11:48;;;;;;;39.33;25.70;;;8.20;68.70;;;;;;4725546;29;116474;-81
2023/03/27 05:14:19;;;;;;;39.45;25.20;;;8.20;69.20;;;;;;4724632;29;114567;-81
2023/03/27 05:16:49;;;;;;;39.90;24.08;;;8.20;69.20;;;;;;4710364;29;114572;-82
2023/03/27 05:19:18;;;;;;;36.30;22.13;;;8.30;69.20;;;;;;4711851;29;114555;-82
2023/03/27 05:21:51;;;;;;;;;;;8.30;69.00;;;;;;4710541;29;117889;-83
2023/03/27 05:24:18;;;;;;;34.03;21.85;;;8.10;68.00;;;;;;4727771;29;114827;-81
2023/03/27 05:26:47;;;;;;;28.35;19.48;;;8.10;69.30;;;;;;4741561;29;114465;-83
2023/03/27 05:29:15;;;;;;;31.55;21.55;;;8.10;69.20;;;;;;4712042;29;114537;-82
2023/03/27 05:31:46;;;;;;;34.15;21.85;;;8.20;69.40;;;;;;4710724;29;115299;-82
2023/03/27 05:34:33;;;;;;;34.65;22.33;;;8.20;69.50;;;;;;4724910;29;114859;-83
2023/03/27 05:37:04;;;;;;;33.97;22.33;;;8.20;69.50;;;;;;4725305;29;114866;-83
2023/03/27 05:39:35;;;;;;;35.53;23.98;;;8.20;69.70;;;;;;4701504;29;114804;-83
2023/03/27 05:42:07;;;;;;;35.85;21.83;;;8.20;69.60;;;;;;4704866;29;115139;-83
2023/03/27 05:44:35;;;;;;;37.20;24.77;;;8.20;69.50;;;;;;4702893;29;115830;-83
2023/03/27 05:47:02;;;;;;;37.63;24.05;;;8.20;69.60;;;;;;4703534;29;114807;-83
2023/03/27 05:49:31;;;;;;;40.95;24.95;;;8.20;69.60;;;;;;4718072;29;116419;-83
2023/03/27 05:52:08;;;;;;;37.67;24.63;;;8.30;69.70;;;;;;4702654;29;114701;-83
2023/03/27 05:54:36;;;;;;;42.10;24.83;;;8.20;69.50;;;;;;4682403;29;114796;-83
2023/03/27 05:57:07;;;;;;;40.30;25.92;;;8.30;69.50;;;;;;4715519;29;114882;-84
2023/03/27 05:59:37;;;;;;;49.80;24.70;;;8.30;69.40;;;;;;4717902;29;114834;-83
2023/03/27 06:02:20;;;;;;;40.05;27.50;;;8.30;69.70;;;;;;4716265;29;115163;-82
2023/03/27 06:04:57;;;;;;;43.17;28.55;;;8.20;69.60;;;;;;4689059;29;115335;-83
2023/03/27 06:07:30;;;;;;;48.05;30.80;;;8.30;69.70;;;;;;4702534;29;114664;-83
2023/03/27 06:10:03;;;;;;;49.45;32.08;;;8.30;69.60;;;;;;4675409;29;115218;-83
2023/03/27 06:13:11;;;;;;;46.22;32.15;;;8.40;69.60;;;;;;4705949;29;117826;-83
2023/03/27 06:15:52;;;;;;;48.75;32.90;;;8.40;69.60;;;;;;4701399;29;117036;-83
2023/03/27 06:19:06;;;;;;;60.17;39.88;;;8.40;69.50;;;;;;4705413;29;114588;-84
2023/03/27 06:21:42;;;;;;;51.22;36.28;;;8.40;69.30;;;;;;4720343;29;115613;-85
2023/03/27 06:24:09;;;;;;;47.65;33.55;;;8.40;69.20;;;;;;4701531;29;117819;-85
2023/03/27 06:26:36;;;;;;;54.92;35.90;;;8.50;69.30;;;;;;4716784;29;114977;-85
2023/03/27 06:29:04;;;;;;;51.03;36.13;;;8.50;69.10;;;;;;4707099;29;114969;-85
2023/03/27 06:31:35;;;;;;;55.28;36.20;;;8.50;69.10;;;;;;4702932;29;114644;-84
2023/03/27 06:34:24;;;;;;;53.45;35.80;;;8.50;69.10;;;;;;4703067;29;115159;-84
2023/03/27 06:37:02;;;;;;;49.10;34.63;;;8.40;69.40;;;;;;4702797;29;114824;-84
2023/03/27 06:39:39;;;;;;;49.70;33.92;;;8.40;69.30;;;;;;4678712;29;114993;-84
2023/03/27 06:42:07;;;;;;;49.53;33.70;;;8.30;69.30;;;;;;4701569;29;114805;-85
2023/03/27 06:44:44;;;;;;;45.67;33.70;;;8.30;69.30;;;;;;4688494;29;121929;-85
2023/03/27 06:47:34;;;;;;;49.75;34.30;;;8.30;69.40;;;;;;4679248;29;117908;-85
2023/03/27 06:50:37;;;;;;;48.67;33.67;;;8.30;69.40;;;;;;4682306;29;114965;-84
2023/03/27 06:53:05;;;;;;;46.25;31.52;;;8.30;69.50;;;;;;4689033;29;114691;-83
2023/03/27 06:55:50;;;;;;;40.85;29.67;;;8.30;69.50;;;;;;4716233;29;116298;-82
2023/03/27 06:58:17;;;;;;;44.72;30.33;;;8.30;69.40;;;;;;4660366;29;116338;-85
2023/03/27 07:00:47;;;;;;;42.65;32.00;;;8.40;69.40;;;;;;4707772;29;114395;-82
2023/03/27 07:03:20;;;;;;;43.70;30.17;;;8.30;69.40;;;;;;4686638;29;114502;-84
2023/03/27 07:05:49;;;;;;;41.75;30.00;;;8.30;69.40;;;;;;4739109;29;116972;-84
2023/03/27 07:08:17;;;;;;;44.35;31.23;;;8.30;69.50;;;;;;4691183;29;117625;-83
2023/03/27 07:10:53;;;;;;;51.92;36.97;;;8.30;69.60;;;;;;4672806;29;114518;-84
2023/03/27 07:13:23;;;;;;;43.85;33.63;;;8.40;69.50;;;;;;4646838;29;117732;-83
2023/03/27 07:15:52;;;;;;;37.65;29.30;;;8.40;69.50;;;;;;4687372;29;118192;-84
2023/03/27 07:18:21;;;;;;;36.10;27.63;;;8.40;69.20;;;;;;4687297;29;114885;-84
2023/03/27 07:20:51;;;;;;;44.65;34.40;;;8.30;69.20;;;;;;4675399;29;114688;-84
2023/03/27 07:23:21;;;;;;;46.65;36.17;;;8.30;69.00;;;;;;4661218;29;114773;-85
2023/03/27 07:25:59;;;;;;;43.28;33.03;;;8.30;69.10;;;;;;4688626;29;115270;-84
2023/03/27 07:28:50;;;;;;;41.88;29.98;;;8.20;69.30;;;;;;4689973;29;114624;-83
2023/03/27 07:31:19;;;;;;;44.15;31.38;;;8.30;69.40;;;;;;4675261;29;117070;-84
2023/03/27 07:34:07;;;;;;;49.90;31.63;;;8.40;69.90;;;;;;4682728;29;114649;-84
2023/03/27 07:36:55;;;;;;;49.15;33.00;;;8.50;69.50;;;;;;4678046;29;116490;-84
2023/03/27 07:39:24;;;;;;;46.17;35.05;;;8.50;69.70;;;;;;4707583;29;114936;-83
2023/03/27 07:41:52;;;;;;;42.50;33.92;;;8.50;69.30;;;;;;4682710;29;114463;-82
2023/03/27 07:44:37;;;;;;;44.97;35.30;;;8.50;69.20;;;;;;4697679;29;114514;-83
2023/03/27 07:47:07;;;;;;;48.50;36.67;;;8.50;69.30;;;;;;4707129;29;116665;-84
2023/03/27 07:49:35;;;;;;;42.92;32.03;;;8.50;69.00;;;;;;4727235;29;116710;-85
2023/03/27 07:52:08;;;;;;;47.22;36.20;;;8.50;69.10;;;;;;4699471;29;114715;-84
2023/03/27 07:54:43;;;;;;;46.38;34.78;;;8.50;69.00;;;;;;4689258;29;114562;-84
2023/03/27 07:57:17;;;;;;;46.70;34.53;;;8.40;69.00;;;;;;4704143;29;115268;-83
2023/03/27 07:59:47;;;;;;;44.78;32.42;;;8.50;68.90;;;;;;4702357;29;117746;-83
2023/03/27 08:02:23;;;;;;;43.50;33.50;;;8.50;68.50;;;;;;4702365;29;114633;-85
2023/03/27 08:04:51;;;;;;;51.33;37.55;;;8.40;68.80;;;;;;4674561;29;114658;-84
2023/03/27 08:07:21;;;;;;;42.10;32.33;;;8.40;68.70;;;;;;4702124;29;115761;-85
2023/03/27 08:09:52;;;;;;;34.05;27.08;;;8.50;68.70;;;;;;4644367;29;117178;-85
2023/03/27 08:12:20;;;;;;;35.65;24.85;;;8.50;68.30;;;;;;4703151;29;114912;-84
2023/03/27 08:14:56;;;;;;;34.10;25.35;;;8.30;68.00;;;;;;4665448;29;114659;-83
2023/03/27 08:17:26;;;;;;;33.17;25.35;;;8.20;68.10;;;;;;4691408;29;115486;-84
2023/03/27 08:19:54;;;;;;;29.52;24.50;;;8.20;68.20;;;;;;4676207;29;118832;-85
2023/03/27 08:22:24;;;;;;;42.38;32.88;;;8.20;67.90;;;;;;4663258;29;114522;-84
2023/03/27 08:28:35;;;;;;;38.60;31.88;;;8.10;68.60;;;;;;4683886;29;115100;-84
2023/03/27 08:31:10;;;;;;;43.58;36.08;;;8.10;68.60;;;;;;4667891;29;114876;-83
2023/03/27 08:33:38;;;;;;;;;;;8.10;68.90;;;;;;4676936;29;114474;-84
2023/03/27 08:36:10;;;;;;;39.78;31.92;;;7.90;68.20;;;;;;4677605;29;114610;-84
2023/03/27 08:38:38;;;;;;;34.75;26.27;;;7.90;68.90;;;;;;4691690;29;117377;-84
2023/03/27 08:41:29;;;;;;;;;;;7.90;69.20;;;;;;4663397;29;115374;-84
2023/03/27 08:44:14;;;;;;;16.52;13.10;;;7.80;67.90;;;;;;4696072;29;114621;-84
2023/03/27 08:47:08;;;;;;;12.80;10.63;;;7.50;64.90;;;;;;4675809;29;114636;-84
2023/03/27 08:49:47;;;;;;;10.43;8.88;;;7.20;64.00;;;;;;4691321;29;115327;-85
2023/03/27 08:52:41;;;;;;;12.05;7.55;;;6.70;63.60;;;;;;4671854;29;115438;-85
2023/03/27 08:55:21;;;;;;;7.50;6.60;;;6.30;64.00;;;;;;4672355;29;114346;-85
2023/03/27 08:58:04;;;;;;;10.02;6.57;;;5.90;63.90;;;;;;4698687;29;114555;-85
2023/03/27 09:00:38;;;;;;;7.47;6.15;;;5.60;64.30;;;;;;4707008;29;115354;-85
2023/03/27 09:03:40;;;;;;;7.50;5.45;;;5.40;64.40;;;;;;4677755;29;114959;-84
2023/03/27 09:07:05;;;;;;;7.07;5.25;;;5.10;64.70;;;;;;4678574;29;114953;-83
2023/03/27 09:09:54;;;;;;;8.00;6.57;;;4.90;65.00;;;;;;4695553;29;114693;-85
2023/03/27 09:12:39;;;;;;;10.33;7.63;;;4.60;65.00;;;;;;4676510;29;115629;-85
2023/03/27 09:15:16;;;;;;;;;;;4.30;65.10;;;;;;4689668;29;114777;-83
2023/03/27 09:17:59;;;;;;;8.95;7.38;;;4.10;65.20;;;;;;4693767;29;114624;-83
2023/03/27 09:20:33;;;;;;;9.88;8.00;;;3.80;65.90;;;;;;4677594;29;114675;-83
2023/03/27 09:23:11;;;;;;;;;;;3.70;66.10;;;;;;4675402;29;115223;-83
2023/03/27 09:26:16;;;;;;;10.43;8.25;;;3.50;65.90;;;;;;4717268;29;114758;-83
2023/03/27 09:29:25;;;;;;;9.65;7.15;;;3.40;66.90;;;;;;4697056;29;114734;-81
2023/03/27 09:32:02;;;;;;;10.52;7.78;;;3.20;67.00;;;;;;4688332;29;114727;-82
2023/03/27 09:34:33;;;;;;;12.15;9.05;;;3.20;67.00;;;;;;4673358;29;116385;-83
2023/03/27 09:37:01;;;;;;;11.48;7.78;;;3.20;67.30;;;;;;4687187;29;116046;-83
2023/03/27 09:39:32;;;;;;;12.07;8.20;;;3.10;67.30;;;;;;4718120;29;114617;-84
2023/03/27 09:42:32;;;;;;;9.05;6.80;;;3.10;67.50;;;;;;4722129;29;115029;-84
2023/03/27 09:45:03;;;;;;;8.15;6.32;;;3.00;67.70;;;;;;4690976;29;117946;-84
2023/03/27 09:48:06;;;;;;;9.95;6.55;;;3.00;67.70;;;;;;4665582;29;118213;-83
2023/03/27 09:50:46;;;;;;;10.50;7.47;;;3.00;67.90;;;;;;4693785;29;115062;-82
2023/03/27 09:53:57;;;;;;;9.95;6.65;;;3.00;67.80;;;;;;4698379;29;114550;-84
2023/03/27 09:56:28;;;;;;;9.50;6.85;;;2.90;67.90;;;;;;4679256;29;115430;-83
2023/03/27 09:58:59;;;;;;;11.23;8.18;;;2.80;67.70;;;;;;4689569;29;115142;-82
2023/03/27 10:01:29;;;;;;;10.73;7.82;;;2.80;67.70;;;;;;4713984;29;115851;-83
2023/03/27 10:04:13;;;;;;;13.80;11.23;;;2.70;67.30;;;;;;4722682;29;114653;-84
2023/03/27 10:06:47;;;;;;;9.75;8.10;;;2.70;67.40;;;;;;4720655;29;115889;-83
2023/03/27 10:09:28;;;;;;;10.80;8.07;;;2.60;67.40;;;;;;4713665;29;116216;-84
2023/03/27 10:12:04;;;;;;;11.93;9.30;;;2.50;67.30;;;;;;4715171;29;114624;-83
2023/03/27 10:14:40;;;;;;;14.75;11.73;;;2.40;67.60;;;;;;4701924;29;114535;-84
2023/03/27 10:17:25;;;;;;;13.13;10.52;;;2.40;67.60;;;;;;4708489;29;115476;-83
2023/03/27 10:20:40;;;;;;;17.45;12.45;;;2.50;67.80;;;;;;4694530;29;114797;-85
2023/03/27 10:23:48;;;;;;;18.25;12.60;;;2.40;67.50;;;;;;4698819;29;114887;-84
2023/03/27 10:26:29;;;;;;;13.95;9.93;;;2.40;67.80;;;;;;4691706;29;114822;-83
2023/03/27 10:29:00;;;;;;;12.75;9.35;;;2.30;67.80;;;;;;4697680;29;115516;-84
2023/03/27 10:31:51;;;;;;;14.90;10.48;;;2.20;67.80;;;;;;4692439;29;115617;-83
2023/03/27 10:34:56;;;;;;;16.80;11.85;;;2.20;68.20;;;;;;4701939;29;114572;-83
2023/03/27 10:37:44;;;;;;;20.48;15.38;;;2.30;68.20;;;;;;4709772;29;115107;-85
2023/03/27 10:40:37;;;;;;;17.63;12.80;;;2.40;68.10;;;;;;4699983;29;115473;-84
2023/03/27 10:43:26;;;;;;;16.50;13.25;;;2.40;67.90;;;;;;4710831;29;114580;-84
2023/03/27 10:45:58;;;;;;;21.55;15.18;;;2.40;67.50;;;;;;4739952;29;114474;-83
2023/03/27 10:48:57;;;;;;;20.35;15.27;;;2.40;67.40;;;;;;4697955;29;114751;-83
2023/03/27 10:51:56;;;;;;;20.67;15.90;;;2.50;67.60;;;;;;4717660;29;114443;-83
2023/03/27 10:54:53;;;;;;;13.80;10.93;;;2.50;67.10;;;;;;4732685;29;114478;-83
2023/03/27 10:57:26;;;;;;;17.88;12.32;;;2.50;66.40;;;;;;4693905;29;114626;-84
2023/03/27 11:00:09;;;;;;;16.35;12.00;;;2.60;65.90;;;;;;4702353;29;114739;-84
2023/03/27 11:02:48;;;;;;;14.52;11.75;;;2.50;65.70;;;;;;4711821;29;119285;-83
2023/03/27 11:05:32;;;;;;;18.17;13.48;;;2.50;65.70;;;;;;4736257;29;115163;-83
2023/03/27 11:08:18;;;;;;;14.60;11.13;;;2.60;65.00;;;;;;4695831;29;114461;-84
2023/03/27 11:10:46;;;;;;;14.68;10.07;;;2.60;64.60;;;;;;4708124;29;114581;-82
2023/03/27 11:13:26;;;;;;;12.65;7.82;;;2.40;64.50;;;;;;4710982;29;115394;-85
2023/03/27 11:16:20;;;;;;;19.33;10.77;;;2.30;64.20;;;;;;4687167;29;115901;-84
2023/03/27 11:19:45;;;;;;;14.90;11.32;;;2.30;64.20;;;;;;4727545;29;114560;-83
2023/03/27 11:22:54;;;;;;;22.38;12.45;;;2.30;64.40;;;;;;4703080;29;114592;-84
2023/03/27 11:25:47;;;;;;;10.95;7.80;;;2.20;64.30;;;;;;4701669;29;116084;-84
2023/03/27 11:28:54;;;;;;;17.35;9.13;;;2.20;64.10;;;;;;4677409;29;118143;-84
2023/03/27 11:32:03;;;;;;;14.00;9.77;;;2.20;64.20;;;;;;4695000;29;114732;-82
2023/03/27 11:34:58;;;;;;;15.38;12.52;;;2.20;64.50;;;;;;4707627;29;114862;-83
2023/03/27 11:37:51;;;;;;;21.80;16.95;;;2.40;65.20;;;;;;4700222;29;116920;-83
2023/03/27 11:40:41;;;;;;;22.60;16.13;;;2.50;65.00;;;;;;4704695;29;115019;-83
2023/03/27 11:43:16;;;;;;;26.00;19.08;;;2.60;65.10;;;;;;4703765;29;114805;-84
2023/03/27 11:46:03;;;;;;;18.88;13.13;;;2.70;64.80;;;;;;4695072;29;114847;-83
2023/03/27 11:49:05;;;;;;;22.73;17.30;;;2.70;64.10;;;;;;4720356;29;115106;-84
2023/03/27 11:53:06;;;;;;;20.17;16.35;;;2.70;64.30;;;;;;4722788;29;114804;-84
2023/03/27 11:56:22;;;;;;;21.20;16.08;;;2.60;64.20;;;;;;4642915;30;114815;-82
2023/03/27 11:59:27;;;;;;;18.45;14.02;;;2.60;64.60;;;;;;4642118;30;116224;-83
2023/03/27 12:02:21;;;;;;;17.90;13.07;;;2.80;64.70;;;;;;4726299;29;115386;-83
2023/03/27 12:05:16;;;;;;;21.35;17.00;;;2.90;63.90;;;;;;4729347;29;114770;-83
2023/03/27 12:08:07;;;;;;;24.85;18.85;;;2.90;64.00;;;;;;4724406;29;114987;-84
2023/03/27 12:11:24;;;;;;;22.15;16.73;;;3.10;64.10;;;;;;4702785;29;114580;-87
2023/03/27 12:15:27;;;;;;;11.85;8.48;;;3.20;64.00;;;;;;4651988;30;119927;-82
2023/03/27 12:19:06;;;;;;;11.63;7.30;;;3.40;63.70;;;;;;4669021;30;115883;-84
2023/03/27 12:22:57;;;;;;;13.73;8.32;;;3.40;63.10;;;;;;4670288;30;115007;-84
2023/03/27 12:26:45;;;;;;;19.50;11.68;;;3.50;63.20;;;;;;4674207;30;114824;-85
2023/03/27 12:30:19;;;;;;;12.48;8.02;;;3.60;62.80;;;;;;4683528;30;115691;-83
2023/03/27 12:33:26;;;;;;;16.20;13.18;;;3.50;62.20;;;;;;4673691;29;117751;-84
2023/03/27 12:35:56;;;;;;;13.20;8.68;;;3.50;61.90;;;;;;4663577;29;114910;-83
2023/03/27 12:38:30;;;;;;;13.15;7.95;;;3.50;62.00;;;;;;4674967;29;114789;-84
2023/03/27 12:41:09;;;;;;;;;;;3.60;61.90;;;;;;4688195;29;115269;-85
2023/03/27 12:43:58;;;;;;;13.23;8.32;;;3.50;62.00;;;;;;4724756;29;114617;-84
2023/03/27 12:46:33;;;;;;;11.68;7.57;;;3.50;61.60;;;;;;4717529;29;114453;-84
2023/03/27 12:49:09;;;;;;;11.27;9.37;;;3.50;61.20;;;;;;4727851;29;114530;-84
2023/03/27 12:51:50;;;;;;;12.50;9.45;;;3.50;60.50;;;;;;4730107;29;115927;-84
2023/03/27 12:54:37;;;;;;;12.13;6.35;;;3.40;60.70;;;;;;4708925;29;114911;-82
2023/03/27 12:57:42;;;;;;;10.90;6.40;;;3.40;60.40;;;;;;4707598;29;114608;-84
2023/03/27 13:00:22;;;;;;;10.70;7.00;;;3.40;60.10;;;;;;4708586;29;114592;-84
2023/03/27 13:03:22;;;;;;;8.02;6.28;;;3.40;59.90;;;;;;4702817;29;115257;-83
2023/03/27 13:06:17;;;;;;;7.43;6.38;;;3.40;59.70;;;;;;4724044;29;118061;-83
2023/03/27 13:09:05;;;;;;;9.68;8.07;;;3.30;59.60;;;;;;4683622;29;114457;-84
2023/03/27 13:12:06;;;;;;;13.50;8.32;;;3.20;59.70;;;;;;4692662;29;114811;-83
2023/03/27 13:15:08;;;;;;;8.75;6.63;;;3.20;59.50;;;;;;4729745;29;117806;-82
2023/03/27 13:17:59;;;;;;;11.27;7.30;;;3.20;60.00;;;;;;4734664;29;119252;-84
2023/03/27 13:21:07;;;;;;;13.50;7.70;;;3.10;60.00;;;;;;4698599;29;114737;-84
2023/03/27 13:23:59;;;;;;;12.57;10.35;;;3.20;59.80;;;;;;4713535;29;114706;-84
2023/03/27 13:27:20;;;;;;;13.20;8.10;;;3.20;59.90;;;;;;4696757;29;114532;-84
2023/03/27 13:29:50;;;;;;;10.75;6.82;;;3.20;59.80;;;;;;4693625;29;119253;-84
2023/03/27 13:32:36;;;;;;;11.45;7.25;;;3.20;59.70;;;;;;4725773;29;114763;-84
2023/03/27 13:35:32;;;;;;;9.60;5.68;;;3.20;59.50;;;;;;4721514;29;114643;-85
2023/03/27 13:38:01;;;;;;;10.50;6.85;;;3.30;59.50;;;;;;4713978;29;115881;-85
2023/03/27 13:40:45;;;;;;;13.88;7.00;;;3.30;59.30;;;;;;4712036;29;116638;-85
2023/03/27 13:43:26;;;;;;;15.27;10.85;;;3.20;58.90;;;;;;4697254;29;114553;-84
2023/03/27 13:46:03;;;;;;;17.10;11.23;;;3.20;58.90;;;;;;4723630;29;114420;-83
2023/03/27 13:49:38;;;;;;;18.23;12.20;;;3.20;59.00;;;;;;4697013;29;115207;-84
2023/03/27 13:52:53;;;;;;;11.85;8.35;;;3.30;59.10;;;;;;4725369;29;114679;-84